Time;durP1;ratioP1;P1;durP2;ratioP2;P2;SDS_P1;SDS_P2;PMS_P1;PMS_P2;Temp;Humidity;BMP_temperature;BMP_pressure;BME280_temperature;BME280_humidity;BME280_pressure;Samples;Min_cycle;Max_cycle;Signal;HPM_P1;HPM_P2
2022/05/17 00:02:06;;;;;;;;;8.25;7.00;;;;;22.99;51.33;101640.09;5062124;28;45444;-57
2022/05/17 00:04:33;;;;;;;;;9.25;6.00;;;;;22.98;51.06;101640.22;5060499;28;45871;-49
2022/05/17 00:06:59;;;;;;;;;8.25;7.00;;;;;22.97;50.93;101643.91;5061979;28;45264;-56
2022/05/17 00:09:25;;;;;;;;;10.75;8.50;;;;;22.96;50.93;101637.69;5060392;28;45330;-54
2022/05/17 00:11:51;;;;;;;;;9.00;7.00;;;;;;;;5061940;28;45324;-54
2022/05/17 00:14:17;;;;;;;;;8.00;6.75;;;;;22.94;50.74;101634.31;5060279;28;46363;-56
2022/05/17 00:16:45;;;;;;;;;7.50;7.25;;;;;22.93;50.77;101640.69;5061590;28;45392;-55
2022/05/17 00:19:12;;;;;;;;;5.25;5.00;;;;;22.92;51.09;101630.09;5060443;28;45490;-55
2022/05/17 00:21:39;;;;;;;;;8.25;6.50;;;;;22.91;50.92;101631.94;5058290;28;45497;-52
2022/05/17 00:24:06;;;;;;;;;7.00;5.50;;;;;22.90;50.57;101627.53;5053554;28;45414;-54
2022/05/17 00:26:34;;;;;;;;;5.00;4.75;;;;;22.91;51.30;101628.38;5049546;28;45405;-55
2022/05/17 00:29:00;;;;;;;;;5.00;5.00;;;;;22.90;50.77;101624.00;5060077;28;45452;-56
2022/05/17 00:31:26;;;;;;;;;6.75;5.00;;;;;22.90;51.00;101629.38;5061897;28;45502;-56
2022/05/17 00:33:53;;;;;;;;;5.00;4.00;;;;;22.89;50.90;101635.75;5047984;28;45383;-55
2022/05/17 00:36:19;;;;;;;;;4.50;4.50;;;;;22.87;51.14;101629.69;5061686;28;45236;-56
2022/05/17 00:38:45;;;;;;;;;4.75;4.75;;;;;22.85;51.26;101619.09;5059647;28;45484;-57
2022/05/17 00:41:10;;;;;;;;;4.25;4.00;;;;;22.84;51.33;101628.13;5061567;28;45446;-57
2022/05/17 00:46:32;;;;;;;;;5.00;5.00;;;;;22.80;51.49;101619.47;5061505;28;45381;-57
2022/05/17 00:48:59;;;;;;;;;5.00;4.25;;;;;22.76;51.70;101620.78;5058863;28;45484;-53
2022/05/17 00:51:28;;;;;;;;;6.25;4.75;;;;;22.76;51.49;101619.94;5033038;28;45343;-56
2022/05/17 00:54:02;;;;;;;;;9.00;5.50;;;;;22.75;51.68;101612.84;5060646;28;45326;-57
2022/05/17 00:56:29;;;;;;;;;5.50;3.75;;;;;22.75;51.50;101620.91;5059684;28;45555;-56
2022/05/17 00:59:00;;;;;;;;;5.75;5.25;;;;;22.72;51.15;101611.31;5060912;28;45248;-57
2022/05/17 01:01:29;;;;;;;;;6.50;4.00;;;;;22.70;51.61;101616.00;5059908;28;45332;-57
2022/05/17 01:03:58;;;;;;;;;6.00;5.00;;;;;22.69;51.46;101610.78;5061158;28;45292;-56
2022/05/17 01:06:30;;;;;;;;;6.00;4.25;;;;;22.68;52.03;101611.78;5059695;28;45323;-57
2022/05/17 01:08:56;;;;;;;;;6.00;4.00;;;;;22.64;51.71;101605.84;5060688;28;45398;-54
2022/05/17 01:11:21;;;;;;;;;6.00;6.00;;;;;22.62;51.80;101607.84;5059311;28;45269;-57
2022/05/17 01:16:32;;;;;;;;;7.75;6.25;;;;;22.54;51.89;101608.59;5059913;28;45324;-57
2022/05/17 01:18:58;;;;;;;;;5.75;5.75;;;;;22.55;51.89;101604.06;5059855;28;45417;-54
2022/05/17 01:21:23;;;;;;;;;5.25;5.25;;;;;22.56;52.44;101609.28;5056185;28;45408;-55
2022/05/17 01:23:49;;;;;;;;;5.25;5.00;;;;;22.55;52.23;101602.22;5054982;28;46100;-56
2022/05/17 01:26:20;;;;;;;;;9.25;7.00;;;;;22.53;52.10;101604.22;5045500;28;45434;-54
2022/05/17 01:28:48;;;;;;;;;7.50;5.75;;;;;22.51;52.36;101602.66;5059322;28;45414;-55
2022/05/17 01:31:15;;;;;;;;;6.25;4.75;;;;;22.51;52.19;101597.28;5060231;28;45320;-56
2022/05/17 01:33:40;;;;;;;;;8.50;7.50;;;;;22.51;52.04;101595.47;5047293;28;45396;-54
2022/05/17 01:36:10;;;;;;;;;8.75;6.00;;;;;22.52;52.12;101607.06;5060601;28;45308;-56
2022/05/17 01:38:36;;;;;;;;;9.75;8.25;;;;;22.50;52.22;101603.66;5058655;28;45495;-55
2022/05/17 01:41:03;;;;;;;;;9.25;6.50;;;;;22.48;52.28;101605.63;5060674;28;45309;-56
2022/05/17 01:43:28;;;;;;;;;5.50;5.50;;;;;22.46;51.95;101597.72;5058721;28;45373;-54
2022/05/17 01:45:53;;;;;;;;;5.75;4.50;;;;;22.45;52.17;101600.56;5060802;28;45475;-56
2022/05/17 01:48:19;;;;;;;;;8.75;6.50;;;;;22.45;52.39;101600.56;5058850;28;45408;-55
2022/05/17 01:50:45;;;;;;;;;7.00;7.00;;;;;22.43;51.93;101600.69;5055804;28;45774;-56
2022/05/17 01:53:11;;;;;;;;;7.00;5.00;;;;;22.41;52.11;101599.16;5052605;28;45379;-52
2022/05/17 01:55:37;;;;;;;;;5.00;5.00;;;;;22.41;51.79;101599.16;5070422;28;45332;-56
2022/05/17 01:58:03;;;;;;;;;6.75;5.00;;;;;22.40;51.65;101601.00;5068749;28;45443;-55
2022/05/17 02:00:28;;;;;;;;;6.50;5.50;;;;;22.39;51.99;101604.69;5069777;28;45571;-55
2022/05/17 02:02:54;;;;;;;;;4.75;4.75;;;;;22.38;51.95;101605.69;5070024;28;45438;-52
2022/05/17 02:05:22;;;;;;;;;5.50;5.50;;;;;22.39;51.51;101604.69;5070022;28;45450;-55
2022/05/17 02:07:50;;;;;;;;;8.00;7.00;;;;;22.36;51.43;101618.41;5067725;28;45492;-52
2022/05/17 02:10:17;;;;;;;;;3.50;3.50;;;;;22.35;51.22;101635.47;5067764;28;45491;-55
2022/05/17 02:12:42;;;;;;;;;5.00;4.75;;;;;22.36;51.54;101639.03;5067931;28;45418;-55
2022/05/17 02:15:09;;;;;;;;;5.75;4.75;;;;;22.37;51.54;101636.22;5071875;28;45527;-56
2022/05/17 02:17:35;;;;;;;;;7.00;4.50;;;;;22.40;51.25;101640.44;5067502;28;45410;-55
2022/05/17 02:20:07;;;;;;;;;5.75;5.50;;;;;22.41;51.64;101648.31;5069530;28;45691;-55
2022/05/17 02:22:33;;;;;;;;;4.25;4.00;;;;;22.43;51.64;101629.38;5068791;28;47555;-54
2022/05/17 02:24:59;;;;;;;;;4.75;4.75;;;;;22.42;51.45;101625.00;5061280;28;45471;-55
2022/05/17 02:27:25;;;;;;;;;5.50;4.25;;;;;22.39;51.48;101639.59;5061214;28;45465;-55
2022/05/17 02:29:50;;;;;;;;;5.50;3.50;;;;;22.39;51.23;101647.63;5061019;28;45300;-54
2022/05/17 02:32:16;;;;;;;;;5.00;5.00;;;;;22.39;50.92;101644.94;5060639;28;45154;-54
2022/05/17 02:34:42;;;;;;;;;4.25;3.25;;;;;22.40;51.52;101633.22;5061244;28;45396;-55
2022/05/17 02:37:08;;;;;;;;;3.75;3.75;;;;;22.39;51.34;101650.31;5061123;28;45220;-53
2022/05/17 02:39:34;;;;;;;;;4.75;3.50;;;;;22.40;50.98;101646.63;5060979;28;45291;-55
2022/05/17 02:42:00;;;;;;;;;4.00;3.50;;;;;22.40;50.56;101630.53;5060612;28;46059;-55
2022/05/17 02:44:27;;;;;;;;;7.00;4.00;;;;;22.41;50.91;101637.59;5060883;28;45256;-52
2022/05/17 02:46:52;;;;;;;;;5.25;3.50;;;;;22.40;50.71;101643.13;5060980;28;45341;-55
2022/05/17 02:49:18;;;;;;;;;2.25;2.25;;;;;22.38;50.56;101635.22;5060932;28;45509;-53
2022/05/17 02:51:43;;;;;;;;;3.00;3.00;;;;;22.39;50.90;101636.91;5059091;28;46639;-54
2022/05/17 02:54:10;;;;;;;;;5.00;3.00;;;;;22.37;50.76;101638.03;5059184;28;45308;-56
2022/05/17 02:56:36;;;;;;;;;5.00;3.75;;;;;22.34;50.57;101639.16;5058128;28;45418;-53
2022/05/17 02:59:03;;;;;;;;;4.75;3.75;;;;;22.33;50.93;101639.31;5059282;28;45169;-53
2022/05/17 03:01:29;;;;;;;;;3.25;3.00;;;;;22.31;50.73;101633.25;5057975;28;45376;-55
2022/05/17 03:03:54;;;;;;;;;2.75;2.75;;;;;22.28;51.04;101631.72;5059303;28;45395;-53
2022/05/17 03:06:20;;;;;;;;;3.75;3.75;;;;;22.26;50.81;101639.88;5058062;28;45229;-53
2022/05/17 03:08:45;;;;;;;;;4.75;4.25;;;;;22.22;51.53;101637.66;5059373;28;45332;-56
2022/05/17 03:11:11;;;;;;;;;4.00;4.00;;;;;22.19;50.93;101632.56;5057639;28;46071;-55
2022/05/17 03:13:36;;;;;;;;;6.25;4.00;;;;;22.18;51.35;101630.88;5058871;28;45323;-55
2022/05/17 03:16:03;;;;;;;;;5.00;3.75;;;;;22.15;51.08;101629.34;5057976;28;45549;-55
2022/05/17 03:18:28;;;;;;;;;4.00;4.00;;;;;22.13;51.00;101625.09;5059563;28;45320;-56
2022/05/17 03:20:53;;;;;;;;;4.00;3.00;;;;;22.10;51.30;101622.69;5053092;28;45704;-55
2022/05/17 03:23:19;;;;;;;;;4.25;3.75;;;;;22.07;51.54;101626.50;5057986;28;45361;-52
2022/05/17 03:25:44;;;;;;;;;7.00;5.25;;;;;22.05;51.49;101620.44;5039725;28;45293;-55
2022/05/17 03:28:12;;;;;;;;;7.75;5.75;;;;;22.06;51.45;101627.50;5059066;28;45288;-54
2022/05/17 03:30:38;;;;;;;;;4.00;3.25;;;;;22.06;51.32;101623.97;5057605;28;46092;-53
2022/05/17 03:33:04;;;;;;;;;5.00;3.25;;;;;22.05;51.50;101622.28;5051928;28;45365;-55
2022/05/17 03:35:29;;;;;;;;;4.00;4.00;;;;;22.06;51.31;101618.59;5043063;28;45451;-54
2022/05/17 03:37:55;;;;;;;;;5.75;5.00;;;;;22.06;51.69;101619.44;5043948;28;45494;-55
2022/05/17 03:40:20;;;;;;;;;8.75;5.00;;;;;22.04;51.58;101613.38;5043575;28;45344;-56
2022/05/17 03:42:46;;;;;;;;;7.00;5.75;;;;;22.03;51.77;101611.66;5043588;28;45392;-55
2022/05/17 03:45:12;;;;;;;;;4.25;3.75;;;;;22.03;52.05;101615.19;5043870;28;45353;-55
2022/05/17 03:47:38;;;;;;;;;4.50;4.00;;;;;22.00;52.05;101623.53;5043815;28;45606;-54
2022/05/17 03:50:05;;;;;;;;;6.25;6.25;;;;;21.98;52.12;101620.16;5043436;28;45324;-55
2022/05/17 03:52:31;;;;;;;;;7.25;6.75;;;;;21.95;52.69;101617.75;5043282;28;45377;-55
2022/05/17 03:54:59;;;;;;;;;7.25;6.75;;;;;21.91;52.58;101624.41;5061225;28;45182;-53
2022/05/17 03:57:26;;;;;;;;;8.75;5.25;;;;;21.88;52.77;101621.13;5063648;28;45453;-55
2022/05/17 03:59:53;;;;;;;;;6.00;5.00;;;;;21.86;53.12;101615.91;5063191;28;45333;-54
2022/05/17 04:02:19;;;;;;;;;4.00;1.00;;;;;21.82;53.14;101627.09;5063398;28;45279;-55
2022/05/17 04:04:45;;;;;;;;;7.50;6.50;;;;;21.80;53.30;101623.69;5063626;28;45287;-55
2022/05/17 04:07:10;;;;;;;;;6.00;6.00;;;;;21.79;53.40;101628.19;5063717;28;45384;-55
2022/05/17 04:09:36;;;;;;;;;8.75;6.25;;;;;21.78;53.25;101615.78;5063062;28;45224;-55
2022/05/17 04:12:03;;;;;;;;;10.75;6.00;;;;;21.78;53.34;101625.66;5063290;28;45530;-55
2022/05/17 04:14:29;;;;;;;;;6.25;6.25;;;;;21.76;53.27;101616.94;5063175;28;45174;-54
2022/05/17 04:16:55;;;;;;;;;6.75;6.00;;;;;21.74;53.39;101623.28;5062077;28;45545;-54
2022/05/17 04:19:20;;;;;;;;;8.50;7.00;;;;;21.75;53.16;101629.50;5063018;28;45376;-55
2022/05/17 04:21:47;;;;;;;;;6.00;6.00;;;;;21.76;53.76;101628.50;5062980;28;45363;-54
2022/05/17 04:24:14;;;;;;;;;7.00;5.75;;;;;21.76;53.90;101630.34;5061809;28;45272;-54
2022/05/17 04:26:39;;;;;;;;;7.00;5.00;;;;;21.75;53.98;101629.50;5063122;28;45493;-55
2022/05/17 04:29:07;;;;;;;;;9.50;8.25;;;;;21.74;54.04;101631.31;5062492;28;46024;-55
2022/05/17 04:31:33;;;;;;;;;7.00;6.50;;;;;21.74;54.24;101627.81;5063101;28;45540;-52
2022/05/17 04:33:59;;;;;;;;;5.75;5.25;;;;;21.71;54.29;101628.91;5063699;28;45276;-55
2022/05/17 04:36:24;;;;;;;;;6.75;5.50;;;;;21.70;54.32;101637.94;5062944;28;45490;-53
2022/05/17 04:38:50;;;;;;;;;6.75;6.75;;;;;21.68;54.33;101637.25;5062646;28;45615;-55
2022/05/17 04:41:16;;;;;;;;;11.25;8.00;;;;;21.70;54.10;101645.16;5062718;28;45405;-55
2022/05/17 04:43:42;;;;;;;;;9.25;6.75;;;;;21.67;54.36;101642.75;5062723;28;45326;-54
2022/05/17 04:46:09;;;;;;;;;16.50;9.75;;;;;21.64;54.19;101643.03;5062286;28;45321;-55
2022/05/17 04:48:35;;;;;;;;;23.75;14.00;;;;;21.65;54.53;101650.09;5062340;28;45992;-56
2022/05/17 04:51:12;;;;;;;;;16.75;13.00;;;;;21.65;54.54;101645.59;5062449;28;45514;-54
2022/05/17 04:53:38;;;;;;;;;16.25;9.50;;;;;21.66;54.85;101647.28;5062507;28;45208;-54
2022/05/17 04:56:06;;;;;;;;;14.00;10.75;;;;;21.67;55.06;101657.00;5062434;28;45210;-54
2022/05/17 04:58:32;;;;;;;;;7.75;6.00;;;;;21.64;54.76;101649.22;5062120;28;45452;-55
2022/05/17 05:00:58;;;;;;;;;11.50;9.75;;;;;21.64;54.82;101651.06;5062639;28;45423;-56
2022/05/17 05:03:24;;;;;;;;;11.50;9.00;;;;;21.65;54.96;101650.94;5062454;28;45441;-56
2022/05/17 05:05:49;;;;;;;;;14.00;9.00;;;;;21.67;55.12;101654.34;5062551;28;45232;-55
2022/05/17 05:08:15;;;;;;;;;11.25;9.75;;;;;21.67;55.33;101648.97;5062364;28;45314;-55
2022/05/17 05:10:42;;;;;;;;;7.25;7.00;;;;;21.67;55.70;101648.97;5062387;28;45303;-55
2022/05/17 05:13:14;;;;;;;;;15.50;9.50;;;;;21.69;55.35;101662.22;5062331;28;45303;-54
2022/05/17 05:15:39;;;;;;;;;13.50;8.75;;;;;21.72;55.12;101667.31;5062364;28;45402;-54
2022/05/17 05:18:05;;;;;;;;;11.25;8.75;;;;;21.73;55.44;101666.34;5062358;28;45219;-54
2022/05/17 05:20:30;;;;;;;;;6.50;6.50;;;;;21.78;55.52;101671.25;5062126;28;45255;-54
2022/05/17 05:22:56;;;;;;;;;7.75;6.75;;;;;21.82;55.51;101676.22;5062409;28;45445;-54
2022/05/17 05:25:22;;;;;;;;;11.00;9.75;;;;;21.88;55.05;101672.09;5060853;28;45437;-54
2022/05/17 05:27:47;;;;;;;;;14.75;11.50;;;;;21.96;55.19;101675.81;5061610;28;46222;-56
2022/05/17 05:30:15;;;;;;;;;10.50;9.00;;;;;22.03;55.14;101678.72;5062771;28;45169;-55
2022/05/17 05:32:41;;;;;;;;;13.75;10.75;;;;;22.10;55.09;101681.72;5062239;28;45342;-56
2022/05/17 05:35:07;;;;;;;;;10.00;7.50;;;;;22.13;54.94;101682.31;5060792;28;45627;-56
2022/05/17 05:37:33;;;;;;;;;9.75;8.00;;;;;22.18;54.84;101679.19;5060990;28;45698;-56
2022/05/17 05:39:58;;;;;;;;;9.50;8.00;;;;;22.22;54.68;101683.28;5061721;28;45529;-54
2022/05/17 05:42:24;;;;;;;;;11.25;10.00;;;;;22.27;54.03;101689.88;5061638;28;45489;-56
2022/05/17 05:44:50;;;;;;;;;8.00;8.00;;;;;22.33;54.52;101690.31;5061978;28;45243;-56
2022/05/17 05:47:15;;;;;;;;;9.75;9.25;;;;;22.38;54.12;101694.28;5072816;28;46021;-56
2022/05/17 05:49:41;;;;;;;;;7.25;5.00;;;;;22.45;53.94;101695.41;5061751;28;45206;-58
2022/05/17 05:52:07;;;;;;;;;10.50;8.00;;;;;22.50;54.05;101695.78;5066882;28;45272;-55
2022/05/17 05:54:32;;;;;;;;;12.00;10.00;;;;;22.56;54.01;101694.38;5059766;28;45478;-57
2022/05/17 05:56:59;;;;;;;;;13.00;10.75;;;;;22.61;54.24;101700.16;5060348;28;46143;-56
2022/05/17 05:59:28;;;;;;;;;13.75;13.00;;;;;22.66;54.36;101700.53;5061314;28;45351;-60
2022/05/17 06:01:54;;;;;;;;;11.75;10.25;;;;;22.71;54.34;101700.97;5061360;28;45345;-60
2022/05/17 06:04:19;;;;;;;;;12.25;11.50;;;;;22.75;54.22;101694.31;5061414;28;45325;-60
2022/05/17 06:06:45;;;;;;;;;16.25;14.00;;;;;22.79;54.12;101698.38;5061436;28;45166;-59
2022/05/17 06:09:10;;;;;;;;;12.75;11.25;;;;;22.87;54.07;101697.69;5062674;28;45440;-59
2022/05/17 06:11:36;;;;;;;;;19.75;12.75;;;;;22.95;54.28;101696.94;5061465;28;45406;-60
2022/05/17 06:14:01;;;;;;;;;16.25;11.00;;;;;23.01;53.92;101691.84;5061294;28;45415;-61
2022/05/17 06:16:27;;;;;;;;;13.00;12.00;;;;;23.08;53.45;101694.78;5060988;28;45888;-61
2022/05/17 06:18:52;;;;;;;;;14.00;11.50;;;;;23.15;53.29;101697.72;5060803;28;45236;-60
2022/05/17 06:21:18;;;;;;;;;12.00;11.00;;;;;23.23;53.81;101704.03;5061052;28;45296;-60
2022/05/17 06:23:44;;;;;;;;;19.25;14.00;;;;;23.30;53.41;101704.25;5060675;28;45426;-60
2022/05/17 06:26:09;;;;;;;;;14.25;12.50;;;;;23.38;53.09;101696.28;5059374;28;46037;-60
2022/05/17 06:28:35;;;;;;;;;21.00;11.50;;;;;23.46;52.84;101701.78;5060474;28;45307;-61
2022/05/17 06:31:00;;;;;;;;;14.50;12.25;;;;;23.55;51.91;101700.88;5060824;28;45790;-60
2022/05/17 06:33:26;;;;;;;;;8.50;6.00;;;;;23.63;50.64;101698.28;5060878;28;45518;-60
2022/05/17 06:35:53;;;;;;;;;8.25;6.75;;;;;23.69;50.40;101707.56;5060636;28;46182;-60
2022/05/17 06:38:18;;;;;;;;;9.00;7.25;;;;;23.76;50.85;101705.13;5060514;28;45425;-60
2022/05/17 06:40:44;;;;;;;;;12.50;8.25;;;;;23.73;50.16;101698.22;5059965;28;45520;-60
2022/05/17 06:43:10;;;;;;;;;15.00;10.75;;;;;23.75;50.35;101701.59;5060447;28;45241;-60
2022/05/17 06:45:37;;;;;;;;;6.75;6.50;;;;;23.78;50.13;101695.91;5060303;28;45411;-60
2022/05/17 06:48:03;;;;;;;;;11.75;9.75;;;;;23.82;50.17;101699.13;5060302;28;45291;-60
2022/05/17 06:50:30;;;;;;;;;12.25;7.50;;;;;23.83;49.89;101693.59;5060283;28;45425;-61
2022/05/17 06:52:57;;;;;;;;;20.75;18.50;;;;;23.83;49.17;101692.75;5069229;28;45430;-60
2022/05/17 06:55:23;;;;;;;;;6.00;6.00;;;;;23.84;48.67;101697.13;5069552;28;45277;-60
2022/05/17 06:57:50;;;;;;;;;9.75;8.75;;;;;23.86;48.48;101696.00;5061663;28;45745;-61
2022/05/17 07:00:19;;;;;;;;;6.00;6.00;;;;;23.92;48.89;101698.03;5067644;28;45287;-61
2022/05/17 07:02:46;;;;;;;;;4.75;3.75;;;;;23.97;47.71;101699.44;5067033;28;45436;-61
2022/05/17 07:05:13;;;;;;;;;10.50;7.50;;;;;23.99;48.14;101698.28;5068153;28;46196;-61
2022/05/17 07:07:40;;;;;;;;;10.25;7.00;;;;;24.02;48.16;101700.69;5069212;28;45472;-62
2022/05/17 07:13:13;;;;;;;;;6.50;6.25;;;;;24.02;48.05;101706.06;5069795;28;45490;-61
2022/05/17 07:15:49;;;;;;;;;5.75;5.00;;;;;24.00;47.20;101708.03;5072426;28;45548;-60
2022/05/17 07:18:21;;;;;;;;;10.00;8.75;;;;;23.99;47.46;101706.34;5074889;28;45472;-60
2022/05/17 07:20:48;;;;;;;;;6.00;6.00;;;;;23.98;47.65;101695.75;5075793;27;45739;-62
2022/05/17 07:23:15;;;;;;;;;9.75;7.50;;;;;24.00;47.38;101704.50;5076316;27;45618;-61
2022/05/17 07:25:44;;;;;;;;;9.75;7.25;;;;;24.01;47.86;101692.72;5074501;28;46377;-61
2022/05/17 07:28:18;;;;;;;;;7.50;6.00;;;;;24.05;47.18;101699.50;5077257;28;45218;-60
2022/05/17 07:30:49;;;;;;;;;9.75;8.00;;;;;24.09;47.07;101703.56;5076773;28;45314;-60
2022/05/17 07:33:17;;;;;;;;;5.50;5.50;;;;;24.10;47.25;101695.38;5076673;28;45492;-60
2022/05/17 07:35:43;;;;;;;;;5.25;4.50;;;;;24.11;46.64;101705.13;5074956;28;45452;-61
2022/05/17 07:38:09;;;;;;;;;10.00;8.25;;;;;24.15;47.15;101709.19;5077215;28;45334;-62
2022/05/17 07:40:36;;;;;;;;;10.25;7.50;;;;;24.17;46.56;101712.59;5077475;28;45365;-60
2022/05/17 07:43:01;;;;;;;;;15.75;13.50;;;;;24.19;47.00;101701.66;5075125;28;45477;-60
2022/05/17 07:45:27;;;;;;;;;15.50;11.25;;;;;24.22;46.21;101701.34;5074107;28;45313;-60
2022/05/17 07:47:52;;;;;;;;;18.25;15.50;;;;;24.23;46.53;101706.56;5075292;28;45237;-61
2022/05/17 07:50:18;;;;;;;;;25.25;19.00;;;;;24.24;46.46;101702.00;5078132;27;45394;-61
2022/05/17 07:52:44;;;;;;;;;20.50;16.75;;;;;24.26;46.43;101705.41;5076238;28;45315;-62
2022/05/17 07:55:10;;;;;;;;;14.00;8.75;;;;;24.29;46.23;101698.84;5074583;28;45360;-63
2022/05/17 07:57:37;;;;;;;;;13.00;11.50;;;;;24.31;45.71;101708.47;5075065;28;45330;-60
2022/05/17 08:00:05;;;;;;;;;19.75;18.75;;;;;24.36;46.32;101708.88;5077138;28;45408;-62
2022/05/17 08:02:32;;;;;;;;;20.25;17.50;;;;;24.40;46.41;101701.31;5075463;28;45442;-63
2022/05/17 08:04:58;;;;;;;;;28.50;21.50;;;;;24.44;46.17;101708.09;5073722;28;46558;-60
2022/05/17 08:07:24;;;;;;;;;28.50;18.25;;;;;24.47;45.83;101705.06;5076123;28;45388;-60
2022/05/17 08:09:49;;;;;;;;;22.00;18.75;;;;;24.53;45.50;101698.22;5075940;27;45441;-62
2022/05/17 08:12:15;;;;;;;;;17.75;14.50;;;;;24.56;45.02;101701.44;5074659;28;45514;-61
2022/05/17 08:14:41;;;;;;;;;8.50;8.50;;;;;24.60;43.84;101701.97;5074600;28;46098;-61
2022/05/17 08:17:08;;;;;;;;;10.75;8.00;;;;;24.65;43.52;101703.19;5076359;28;45461;-60
2022/05/17 08:19:37;;;;;;;;;6.25;6.25;;;;;24.70;43.03;101697.31;5073545;28;45241;-61
2022/05/17 08:22:05;;;;;;;;;4.50;4.00;;;;;24.74;43.55;101688.75;5073115;28;45406;-62
2022/05/17 08:27:31;;;;;;;;;9.50;7.00;;;;;24.81;44.31;101696.22;5067885;28;45425;-62
2022/05/17 08:27:37;;;;;;;;;8.00;4.50;;;;;24.85;44.38;101697.56;5067319;28;45408;-63
2022/05/17 08:30:14;;;;;;;;;4.00;4.00;;;;;24.93;43.22;101694.91;5062568;28;45307;-62
2022/05/17 08:35:51;;;;;;;;;4.00;4.00;;;;;24.97;42.30;101702.50;5062534;28;45303;-62
2022/05/17 08:38:21;;;;;;;;;3.25;3.25;;;;;25.01;41.88;101698.47;5062797;28;45335;-62
2022/05/17 08:40:58;;;;;;;;;5.00;5.00;;;;;25.02;41.66;101697.47;5062809;28;45382;-62
2022/05/17 08:43:47;;;;;;;;;7.00;4.50;;;;;25.05;41.86;101694.50;5062290;28;45318;-62
2022/05/17 08:46:26;;;;;;;;;3.75;3.00;;;;;25.08;40.98;101685.22;5062657;28;45423;-62
2022/05/17 08:49:13;;;;;;;;;3.00;3.00;;;;;25.14;39.66;101692.69;5062289;28;45284;-62
2022/05/17 08:52:09;;;;;;;;;3.25;2.50;;;;;25.20;39.62;101689.34;5062450;28;45285;-62
2022/05/17 08:54:42;;;;;;;;;3.00;3.00;;;;;25.27;39.99;101689.50;5062694;28;45276;-62
2022/05/17 08:57:29;;;;;;;;;2.75;2.75;;;;;25.28;38.37;101686.66;5048275;28;46720;-62
2022/05/17 08:59:56;;;;;;;;;3.00;1.75;;;;;25.29;38.45;101685.66;5062436;28;45278;-62
2022/05/17 09:02:40;;;;;;;;;3.00;2.00;;;;;25.36;38.76;101690.38;5062749;28;45471;-62
2022/05/17 09:05:27;;;;;;;;;3.50;2.75;;;;;25.45;38.48;101678.59;5049275;28;45375;-62
2022/05/17 09:08:11;;;;;;;;;2.50;2.50;;;;;25.49;37.34;101683.50;5062241;28;46306;-62
2022/05/17 09:10:39;;;;;;;;;2.00;2.00;;;;;25.52;36.91;101685.03;5062365;28;45307;-62
2022/05/17 09:13:14;;;;;;;;;3.75;2.00;;;;;25.55;37.35;101688.22;5062068;28;45256;-62
2022/05/17 09:15:40;;;;;;;;;3.50;3.00;;;;;25.65;37.62;101688.06;5062372;28;45323;-62
2022/05/17 09:18:10;;;;;;;;;3.00;2.25;;;;;25.71;37.29;101683.88;5061954;28;46030;-62
2022/05/17 09:20:38;;;;;;;;;2.00;2.00;;;;;25.77;36.81;101685.94;5062004;28;45311;-62
2022/05/17 09:23:04;;;;;;;;;1.25;1.25;;;;;25.85;37.07;101677.84;5062212;28;45407;-63
2022/05/17 09:25:50;;;;;;;;;2.00;2.00;;;;;25.91;36.83;101674.50;5060890;28;45322;-63
2022/05/17 09:28:22;;;;;;;;;1.50;1.50;;;;;25.96;37.44;101679.38;5061367;28;45389;-62
2022/05/17 09:30:48;;;;;;;;;4.00;2.50;;;;;26.03;37.08;101669.56;5061691;28;45286;-62
2022/05/17 09:33:20;;;;;;;;;2.25;1.25;;;;;26.10;36.75;101663.34;5061868;28;45240;-62
2022/05/17 09:36:00;;;;;;;;;3.00;3.00;;;;;26.17;36.42;101667.03;5062009;28;45413;-62
2022/05/17 09:38:31;;;;;;;;;3.75;1.75;;;;;26.24;36.49;101669.91;5061864;28;46263;-62
2022/05/17 09:40:57;;;;;;;;;1.75;1.25;;;;;26.29;36.28;101667.53;5061844;28;45271;-62
2022/05/17 09:43:45;;;;;;;;;3.25;2.00;;;;;26.36;36.71;101663.13;5061267;28;45407;-62
2022/05/17 09:46:13;;;;;;;;;1.00;1.00;;;;;26.42;36.16;101667.03;5061803;28;45224;-62
2022/05/17 09:54:44;;;;;;;;;1.25;1.00;;;;;26.51;35.88;101659.75;5061620;28;45473;-62
2022/05/17 09:57:26;;;;;;;;;2.00;2.00;;;;;26.60;36.17;101664.09;5061775;28;45450;-62
2022/05/17 10:00:01;;;;;;;;;1.00;1.00;;;;;26.68;36.16;101654.13;5061391;28;45418;-62
2022/05/17 10:02:29;;;;;;;;;1.75;1.00;;;;;26.79;36.32;101660.19;5061446;28;45341;-62
2022/05/17 10:05:00;;;;;;;;;2.75;2.00;;;;;26.86;36.10;101659.31;5061400;28;45264;-62
2022/05/17 10:07:29;;;;;;;;;1.00;1.00;;;;;26.91;35.62;101654.19;5061721;28;45390;-62
2022/05/17 10:09:54;;;;;;;;;1.50;1.50;;;;;26.95;35.58;101655.56;5061019;28;45656;-62
2022/05/17 10:12:31;;;;;;;;;1.00;1.00;;;;;27.00;35.54;101645.03;5060941;28;45275;-62
2022/05/17 10:15:04;;;;;;;;;3.75;2.50;;;;;27.07;36.16;101647.91;5061068;28;45218;-63
2022/05/17 10:17:35;;;;;;;;;0.00;0.00;;;;;27.16;35.51;101651.41;5061418;28;45457;-62
2022/05/17 10:20:10;;;;;;;;;1.00;1.00;;;;;27.24;35.09;101643.25;5060886;28;46111;-62
2022/05/17 10:22:45;;;;;;;;;2.50;2.00;;;;;27.27;35.51;101640.19;5060853;28;45492;-62
2022/05/17 10:25:28;;;;;;;;;3.00;2.00;;;;;27.35;35.32;101639.31;5059696;28;45430;-63
2022/05/17 10:27:58;;;;;;;;;1.00;1.00;;;;;27.39;35.74;101637.91;5060711;28;45457;-62
2022/05/17 10:30:48;;;;;;;;;1.50;1.00;;;;;27.42;34.58;101634.88;5060136;28;46329;-62
2022/05/17 10:33:26;;;;;;;;;1.25;1.00;;;;;27.46;35.14;101630.75;5060309;28;45515;-62
2022/05/17 10:36:01;;;;;;;;;1.00;1.00;;;;;27.49;34.50;101627.69;5060708;28;45318;-62
2022/05/17 10:38:34;;;;;;;;;1.25;1.25;;;;;27.51;33.99;101618.38;5060535;28;45373;-62
2022/05/17 10:41:05;;;;;;;;;1.00;1.00;;;;;27.51;34.04;101631.06;5060738;28;46141;-62
2022/05/17 10:43:37;;;;;;;;;1.00;1.00;;;;;27.53;33.51;101615.50;5059582;28;45244;-62
2022/05/17 10:46:06;;;;;;;;;1.00;1.00;;;;;27.54;33.91;101612.59;5060623;28;45252;-62
2022/05/17 10:49:06;;;;;;;;;3.00;1.00;;;;;27.60;34.22;101621.88;5059775;28;45212;-62
2022/05/17 10:51:49;;;;;;;;;1.00;0.00;;;;;27.65;33.92;101610.47;5059991;28;46346;-62
2022/05/17 10:54:33;;;;;;;;;0.25;0.00;;;;;27.67;33.52;101603.91;5060347;28;45704;-62
2022/05/17 10:57:17;;;;;;;;;0.00;0.00;;;;;27.74;33.18;101606.75;5047724;28;45290;-61
2022/05/17 11:00:19;;;;;;;;;2.50;1.00;;;;;27.85;33.53;101602.75;5060476;28;45452;-62
2022/05/17 11:03:20;;;;;;;;;0.75;0.75;;;;;27.88;33.52;101599.66;5060190;28;46358;-62
2022/05/17 11:06:07;;;;;;;;;5.25;4.00;;;;;27.92;33.56;101595.56;5060235;28;45507;-62
2022/05/17 11:09:07;;;;;;;;;19.75;16.00;;;;;27.85;32.98;101597.31;5049324;28;45327;-62
2022/05/17 11:11:35;;;;;;;;;1.00;1.00;;;;;27.77;32.96;101585.53;5047311;28;45258;-62
2022/05/17 11:14:17;;;;;;;;;0.00;0.00;;;;;27.85;33.50;101584.63;5059862;28;46011;-62
2022/05/17 11:16:55;;;;;;;;;0.75;0.75;;;;;27.95;33.40;101587.06;5060269;28;45441;-61
2022/05/17 11:19:27;;;;;;;;;4.25;2.00;;;;;27.95;33.47;101582.47;5060362;28;45433;-62
2022/05/17 11:22:05;;;;;;;;;1.50;1.50;;;;;28.03;33.04;101570.72;5060280;28;45202;-62
2022/05/17 11:24:49;;;;;;;;;2.75;2.25;;;;;28.10;33.27;101572.50;5046198;28;45443;-61
2022/05/17 11:27:45;;;;;;;;;1.00;1.00;;;;;28.20;32.99;101572.25;5060181;28;45236;-62
2022/05/17 11:30:49;;;;;;;;;4.25;2.25;;;;;28.28;33.02;101566.75;5060418;28;45504;-62
2022/05/17 11:33:24;;;;;;;;;2.75;1.50;;;;;28.30;33.07;101567.44;5050504;28;46526;-61
2022/05/17 11:35:54;;;;;;;;;2.00;2.00;;;;;28.32;32.59;101564.53;5060037;28;46424;-62
2022/05/17 11:38:47;;;;;;;;;1.25;1.25;;;;;28.31;32.46;101557.44;5060501;28;45386;-62
2022/05/17 11:41:24;;;;;;;;;3.00;1.25;;;;;28.37;32.46;101564.81;5050643;28;45311;-62
2022/05/17 11:43:55;;;;;;;;;2.00;2.00;;;;;28.48;33.33;101558.06;5060096;28;45322;-62
2022/05/17 11:46:39;;;;;;;;;2.00;2.00;;;;;28.55;33.01;101553.56;5060039;28;46298;-62
2022/05/17 11:49:10;;;;;;;;;2.00;2.00;;;;;28.61;33.06;101548.25;5080924;27;45274;-61
2022/05/17 11:51:40;;;;;;;;;2.25;2.00;;;;;28.64;32.91;101553.28;5058427;28;45468;-63